createdAt,value
2023-05-25T00:01:05.222Z,8.46
2023-05-25T00:03:34.098Z,8.24
2023-05-25T00:06:03.581Z,8.26
2023-05-25T00:08:32.450Z,8.32
2023-05-25T00:11:02.586Z,8.44
2023-05-25T00:13:31.689Z,8.50
2023-05-25T00:16:00.327Z,8.51
2023-05-25T00:18:29.114Z,8.18
2023-05-25T00:20:57.911Z,8.14
2023-05-25T00:23:26.680Z,8.46
2023-05-25T00:25:55.516Z,8.62
2023-05-25T00:28:25.785Z,8.59
2023-05-25T00:30:54.883Z,8.46
2023-05-25T00:33:23.922Z,8.44
2023-05-25T00:35:54.414Z,8.25
2023-05-25T00:38:23.779Z,8.19
2023-05-25T00:40:57.511Z,8.37
2023-05-25T00:43:27.631Z,8.23
2023-05-25T00:45:57.470Z,8.39
2023-05-25T00:48:27.928Z,8.33
2023-05-25T00:51:00.182Z,8.17
2023-05-25T00:53:29.077Z,8.00
2023-05-25T00:56:07.479Z,8.08
2023-05-25T00:58:41.385Z,8.14
2023-05-25T01:01:13.197Z,8.29
2023-05-25T01:03:47.782Z,8.23
2023-05-25T01:06:18.945Z,8.14
2023-05-25T01:08:57.098Z,7.96
2023-05-25T01:11:33.223Z,7.99
2023-05-25T01:14:04.966Z,8.12
2023-05-25T01:16:36.197Z,8.13
2023-05-25T01:19:06.159Z,8.09
2023-05-25T01:21:43.253Z,7.68
2023-05-25T01:24:36.690Z,7.59
2023-05-25T01:27:17.469Z,7.89
2023-05-25T01:29:49.692Z,8.09
2023-05-25T01:32:21.275Z,8.12
2023-05-25T01:34:53.368Z,7.91
2023-05-25T01:37:26.541Z,7.84
2023-05-25T01:39:57.083Z,7.72
2023-05-25T01:42:26.426Z,7.60
2023-05-25T01:44:55.246Z,7.38
2023-05-25T01:47:34.262Z,7.65
2023-05-25T01:50:16.910Z,7.69
2023-05-25T01:52:57.325Z,7.88
2023-05-25T01:55:31.143Z,7.99
2023-05-25T01:58:02.638Z,8.07
2023-05-25T02:00:33.686Z,7.94
2023-05-25T02:03:03.670Z,7.70
2023-05-25T02:05:33.364Z,7.78
2023-05-25T02:08:04.567Z,7.70
2023-05-25T02:10:34.714Z,7.61
2023-05-25T02:13:03.474Z,7.53
2023-05-25T02:15:34.462Z,7.24
2023-05-25T02:18:05.911Z,7.32
2023-05-25T02:20:34.946Z,7.55
2023-05-25T02:23:05.914Z,7.62
2023-05-25T02:25:34.546Z,7.68
2023-05-25T02:28:03.324Z,7.77
2023-05-25T02:30:32.218Z,7.77
2023-05-25T02:33:02.447Z,7.58
2023-05-25T02:35:31.426Z,7.57
2023-05-25T02:38:01.311Z,7.59
2023-05-25T02:40:31.582Z,7.70
2023-05-25T02:43:00.320Z,7.72
2023-05-25T02:45:29.078Z,7.77
2023-05-25T02:47:58.430Z,7.49
2023-05-25T02:50:27.950Z,7.21
2023-05-25T02:52:59.201Z,7.16
2023-05-25T02:55:28.017Z,7.25
2023-05-25T02:57:59.236Z,7.45
2023-05-25T03:00:44.848Z,7.36
2023-05-25T03:03:14.150Z,7.23
2023-05-25T03:05:43.607Z,7.41
2023-05-25T03:08:13.151Z,7.52
2023-05-25T03:10:41.990Z,7.36
2023-05-25T03:13:12.132Z,7.28
2023-05-25T03:15:41.195Z,7.43
2023-05-25T03:18:12.368Z,7.32
2023-05-25T03:20:41.622Z,7.19
2023-05-25T03:23:10.901Z,7.20
2023-05-25T03:25:41.041Z,7.24
2023-05-25T03:28:11.258Z,7.40
2023-05-25T03:30:41.259Z,7.17
2023-05-25T03:33:11.355Z,7.06
2023-05-25T03:35:46.441Z,7.00
2023-05-25T03:38:16.183Z,7.01
2023-05-25T03:40:45.242Z,7.20
2023-05-25T03:43:15.524Z,7.22
2023-05-25T03:45:47.294Z,7.16
2023-05-25T03:48:16.382Z,7.04
2023-05-25T03:50:55.403Z,7.04
2023-05-25T03:53:24.707Z,7.23
2023-05-25T03:55:53.725Z,7.11
2023-05-25T03:58:23.760Z,7.16
2023-05-25T04:00:53.092Z,7.03
2023-05-25T04:03:21.979Z,7.14
2023-05-25T04:06:02.233Z,7.32
2023-05-25T04:08:41.138Z,7.35
2023-05-25T04:11:10.280Z,7.45
2023-05-25T04:13:40.604Z,7.34
2023-05-25T04:16:12.472Z,7.28
2023-05-25T04:18:42.304Z,7.39
2023-05-25T04:21:11.154Z,7.49
2023-05-25T04:23:40.483Z,7.52
2023-05-25T04:26:10.475Z,7.53
2023-05-25T04:28:43.651Z,7.58
2023-05-25T04:31:21.621Z,7.67
2023-05-25T04:34:03.884Z,7.70
2023-05-25T04:36:43.525Z,7.75
2023-05-25T04:39:14.665Z,7.76
2023-05-25T04:41:49.517Z,7.82
2023-05-25T04:44:20.190Z,7.80
2023-05-25T04:46:55.701Z,7.88
2023-05-25T04:49:37.283Z,7.88
2023-05-25T04:52:11.720Z,7.86
2023-05-25T04:54:41.826Z,7.95
2023-05-25T04:57:11.418Z,8.01
2023-05-25T04:59:41.909Z,8.01
2023-05-25T05:02:10.754Z,8.10
2023-05-25T05:04:41.576Z,8.14
2023-05-25T05:07:11.160Z,8.05
2023-05-25T05:09:40.579Z,8.21
2023-05-25T05:12:12.188Z,8.29
2023-05-25T05:14:48.945Z,8.40
2023-05-25T05:20:14.002Z,8.27
2023-05-25T05:22:43.783Z,8.32
2023-05-25T05:25:12.736Z,8.51
2023-05-25T05:27:41.881Z,8.51
2023-05-25T05:30:19.940Z,8.52
2023-05-25T05:32:48.688Z,8.67
2023-05-25T05:35:18.179Z,8.79
2023-05-25T05:37:48.475Z,8.92
2023-05-25T05:40:17.462Z,8.97
2023-05-25T05:42:46.416Z,9.13
2023-05-25T05:45:15.129Z,9.24
2023-05-25T05:47:46.491Z,9.38
2023-05-25T05:50:15.317Z,9.51
2023-05-25T05:52:45.751Z,9.62
2023-05-25T05:55:14.715Z,9.73
2023-05-25T05:57:44.561Z,9.83
2023-05-25T06:00:16.217Z,9.92
2023-05-25T06:02:46.550Z,10.02
2023-05-25T06:05:22.219Z,10.12
2023-05-25T06:07:53.328Z,10.20
2023-05-25T06:10:23.719Z,10.32
2023-05-25T06:12:54.234Z,10.44
2023-05-25T06:15:23.589Z,10.56
2023-05-25T06:17:56.732Z,10.67
2023-05-25T06:20:25.622Z,10.80
2023-05-25T06:22:54.705Z,10.95
2023-05-25T06:25:23.872Z,11.09
2023-05-25T06:27:52.763Z,11.20
2023-05-25T06:30:22.748Z,11.30
2023-05-25T06:32:55.293Z,11.44
2023-05-25T06:35:24.125Z,11.51
2023-05-25T06:37:54.262Z,11.61
2023-05-25T06:40:23.041Z,11.74
2023-05-25T06:42:52.420Z,11.75
2023-05-25T06:45:56.384Z,11.87
2023-05-25T06:48:26.581Z,11.91
2023-05-25T06:50:55.348Z,12.01
2023-05-25T06:53:24.034Z,12.10
2023-05-25T06:55:53.757Z,12.20
2023-05-25T06:58:22.454Z,12.32
2023-05-25T07:00:51.341Z,12.40
2023-05-25T07:03:20.031Z,12.44
2023-05-25T07:05:50.415Z,12.46
2023-05-25T07:08:19.154Z,12.64
2023-05-25T07:10:49.980Z,12.69
2023-05-25T07:13:19.186Z,12.77
2023-05-25T07:15:48.507Z,12.85
2023-05-25T07:18:17.441Z,12.89
2023-05-25T07:20:46.724Z,12.93
2023-05-25T07:23:16.993Z,13.03
2023-05-25T07:25:46.283Z,13.10
2023-05-25T07:28:15.318Z,13.23
2023-05-25T07:30:44.116Z,13.26
2023-05-25T07:33:12.804Z,13.33
2023-05-25T07:35:41.779Z,13.46
2023-05-25T07:38:11.497Z,13.61
2023-05-25T07:40:42.285Z,13.65
2023-05-25T07:43:11.192Z,13.69
2023-05-25T07:45:39.976Z,13.68
2023-05-25T07:48:09.661Z,13.78
2023-05-25T07:50:38.532Z,13.85
2023-05-25T07:53:07.188Z,13.85
2023-05-25T07:55:36.210Z,13.92
2023-05-25T07:58:07.492Z,13.99
2023-05-25T08:00:36.323Z,13.92
2023-05-25T08:03:05.304Z,14.07
2023-05-25T08:05:34.198Z,13.88
2023-05-25T08:08:02.869Z,14.03
2023-05-25T08:10:32.651Z,14.26
2023-05-25T08:13:05.340Z,14.40
2023-05-25T08:15:34.020Z,14.55
2023-05-25T08:18:04.552Z,14.56
2023-05-25T08:20:33.499Z,14.51
2023-05-25T08:23:02.279Z,14.59
2023-05-25T08:25:31.071Z,14.65
2023-05-25T08:27:59.775Z,14.70
2023-05-25T08:30:30.712Z,14.90
2023-05-25T08:32:59.427Z,15.03
2023-05-25T08:35:28.128Z,15.12
2023-05-25T08:37:56.857Z,15.17
2023-05-25T08:40:29.865Z,15.15
2023-05-25T08:42:58.643Z,15.25
2023-05-25T08:45:35.687Z,15.33
2023-05-25T08:48:13.773Z,15.49
2023-05-25T08:50:46.424Z,15.64
2023-05-25T08:53:20.242Z,15.62
2023-05-25T08:55:52.032Z,15.57
2023-05-25T08:58:28.859Z,15.75
2023-05-25T09:01:06.567Z,15.84
2023-05-25T09:03:37.297Z,15.89
2023-05-25T09:06:09.581Z,16.02
2023-05-25T09:08:39.815Z,15.88
2023-05-25T09:11:10.001Z,15.80
2023-05-25T09:13:39.870Z,16.04
2023-05-25T09:16:11.236Z,16.35
2023-05-25T09:18:40.312Z,16.61
2023-05-25T09:21:09.227Z,16.52
2023-05-25T09:23:39.223Z,16.55
2023-05-25T09:26:08.935Z,16.59
2023-05-25T09:28:46.638Z,16.78
2023-05-25T09:31:17.926Z,17.07
2023-05-25T09:33:47.996Z,17.12
2023-05-25T09:36:22.055Z,17.24
2023-05-25T09:38:51.573Z,17.49
2023-05-25T09:41:21.986Z,17.68
2023-05-25T09:46:24.897Z,17.87
2023-05-25T09:48:53.974Z,18.16
2023-05-25T09:51:23.158Z,18.54
2023-05-25T09:53:52.390Z,18.78
2023-05-25T09:56:24.002Z,18.99
2023-05-25T09:58:54.095Z,19.15
2023-05-25T10:01:25.104Z,19.06
2023-05-25T10:04:04.098Z,19.20
2023-05-25T10:06:35.318Z,19.42
2023-05-25T10:09:06.584Z,19.51
2023-05-25T10:11:40.262Z,19.62
2023-05-25T10:14:11.433Z,19.74
2023-05-25T10:16:46.635Z,19.92
2023-05-25T10:19:22.101Z,20.02
2023-05-25T10:22:04.630Z,20.06
2023-05-25T10:24:44.207Z,20.07
2023-05-25T10:27:27.142Z,20.19
2023-05-25T10:30:00.306Z,20.39
2023-05-25T10:32:31.910Z,20.64
2023-05-25T10:35:03.238Z,20.65
2023-05-25T10:37:34.867Z,20.75
2023-05-25T10:40:04.918Z,20.86
2023-05-25T10:42:36.993Z,21.03
2023-05-25T10:45:08.900Z,21.13
2023-05-25T10:47:42.880Z,21.30
2023-05-25T10:50:24.422Z,21.26
2023-05-25T10:53:01.908Z,21.51
2023-05-25T10:55:43.066Z,21.55
2023-05-25T10:58:16.718Z,21.59
2023-05-25T11:01:00.236Z,21.88
2023-05-25T11:03:56.285Z,21.94
2023-05-25T11:07:08.364Z,21.89
2023-05-25T11:09:44.854Z,22.02
2023-05-25T11:12:23.700Z,22.08
2023-05-25T11:15:11.888Z,22.21
2023-05-25T11:18:01.526Z,22.45
2023-05-25T11:20:32.156Z,22.55
2023-05-25T11:23:01.014Z,22.49
2023-05-25T11:25:41.612Z,22.62
2023-05-25T11:28:12.694Z,22.74
2023-05-25T11:30:43.397Z,23.00
2023-05-25T11:33:12.102Z,23.27
2023-05-25T11:35:56.380Z,23.21
2023-05-25T11:38:27.518Z,23.15
2023-05-25T11:40:56.699Z,23.31
2023-05-25T11:43:27.863Z,23.47
2023-05-25T11:45:58.012Z,23.65
2023-05-25T11:48:26.917Z,23.69
2023-05-25T11:51:08.269Z,23.99
2023-05-25T11:53:42.372Z,24.14
2023-05-25T11:56:12.596Z,24.46
2023-05-25T11:58:44.619Z,24.53
2023-05-25T12:01:22.170Z,24.52
2023-05-25T12:03:54.167Z,24.72
2023-05-25T12:06:29.436Z,24.75
2023-05-25T12:08:59.331Z,24.88
2023-05-25T12:11:32.665Z,25.22
2023-05-25T12:14:04.683Z,25.25
2023-05-25T12:16:37.304Z,25.68
2023-05-25T12:19:07.412Z,25.32
2023-05-25T12:21:39.538Z,25.60
2023-05-25T12:24:09.047Z,25.81
2023-05-25T12:26:49.202Z,25.92
2023-05-25T12:29:17.994Z,25.93
2023-05-25T12:31:46.829Z,26.17
2023-05-25T12:34:18.800Z,26.24
2023-05-25T12:36:51.886Z,26.48
2023-05-25T12:39:39.289Z,26.88
2023-05-25T12:42:16.298Z,26.95
2023-05-25T12:44:46.796Z,26.80
2023-05-25T12:47:20.243Z,27.05
2023-05-25T12:49:52.235Z,27.07
2023-05-25T12:52:38.321Z,27.43
2023-05-25T12:55:27.376Z,27.24
2023-05-25T12:57:58.062Z,27.63
2023-05-25T13:00:32.192Z,27.58
2023-05-25T13:03:01.303Z,27.62
2023-05-25T13:05:33.052Z,27.68
2023-05-25T13:08:04.153Z,27.65
2023-05-25T13:10:35.694Z,27.59
2023-05-25T13:13:04.839Z,27.61
2023-05-25T13:15:33.814Z,27.72
2023-05-25T13:18:02.813Z,27.81
2023-05-25T13:20:32.709Z,28.33
2023-05-25T13:23:09.075Z,28.39
2023-05-25T13:25:38.616Z,28.56
2023-05-25T13:28:07.433Z,28.75
2023-05-25T13:30:36.565Z,28.75
2023-05-25T13:33:05.596Z,28.72
2023-05-25T13:35:57.885Z,28.83
2023-05-25T13:38:29.716Z,29.35
2023-05-25T13:40:58.510Z,29.41
2023-05-25T13:43:27.701Z,29.59
2023-05-25T13:45:59.134Z,29.68
2023-05-25T13:48:30.750Z,29.89
2023-05-25T13:51:00.042Z,30.21
2023-05-25T13:53:30.146Z,30.11
2023-05-25T13:55:59.084Z,30.14
2023-05-25T13:58:32.171Z,30.34
2023-05-25T14:01:01.532Z,30.26
2023-05-25T14:03:30.613Z,30.47
2023-05-25T14:05:59.655Z,30.57
2023-05-25T14:08:31.112Z,30.86
2023-05-25T14:10:59.847Z,31.33
2023-05-25T14:13:28.533Z,30.98
2023-05-25T14:15:57.362Z,31.81
2023-05-25T14:18:26.111Z,31.37
2023-05-25T14:20:54.799Z,31.58
2023-05-25T14:23:24.229Z,31.95
2023-05-25T14:25:54.431Z,32.19
2023-05-25T14:28:23.211Z,32.08
2023-05-25T14:30:53.319Z,32.18
2023-05-25T14:33:22.059Z,32.39
2023-05-25T14:35:50.997Z,32.48
2023-05-25T14:38:19.787Z,32.91
2023-05-25T14:40:48.581Z,32.92
2023-05-25T14:43:18.842Z,32.73
2023-05-25T14:45:47.833Z,32.90
2023-05-25T14:48:18.168Z,32.90
2023-05-25T14:50:47.228Z,33.07
2023-05-25T14:53:16.702Z,33.01
2023-05-25T14:55:45.895Z,31.61
2023-05-25T14:58:15.205Z,30.16
2023-05-25T15:00:45.646Z,29.39
2023-05-25T15:03:14.766Z,28.93
2023-05-25T15:05:44.244Z,28.32
2023-05-25T15:08:13.853Z,27.55
2023-05-25T15:10:43.403Z,27.00
2023-05-25T15:13:13.306Z,26.95
2023-05-25T15:15:47.289Z,26.77
2023-05-25T15:18:16.560Z,26.61
2023-05-25T15:20:46.013Z,25.97
2023-05-25T15:23:15.501Z,25.60
2023-05-25T15:25:44.420Z,25.24
2023-05-25T15:28:13.134Z,25.28
2023-05-25T15:30:41.803Z,24.94
2023-05-25T15:33:14.675Z,24.83
2023-05-25T15:35:43.669Z,24.71
2023-05-25T15:38:12.636Z,24.63
2023-05-25T15:40:41.275Z,24.70
2023-05-25T15:43:09.979Z,24.70
2023-05-25T15:45:38.625Z,25.47
2023-05-25T15:48:10.154Z,26.06
2023-05-25T15:50:40.482Z,25.78
2023-05-25T15:53:09.857Z,24.97
2023-05-25T15:55:38.505Z,24.57
2023-05-25T15:58:07.417Z,24.37
2023-05-25T16:00:36.135Z,24.56
2023-05-25T16:03:05.415Z,25.05
2023-05-25T16:05:34.140Z,25.61
2023-05-25T16:08:04.447Z,25.46
2023-05-25T16:10:33.559Z,25.09
2023-05-25T16:13:02.325Z,24.54
2023-05-25T16:15:31.219Z,24.31
2023-05-25T16:18:01.217Z,23.95
2023-05-25T16:20:30.133Z,23.66
2023-05-25T16:22:59.155Z,23.48
2023-05-25T16:25:29.960Z,23.08
2023-05-25T16:28:02.072Z,22.86
2023-05-25T16:30:30.962Z,22.91
2023-05-25T16:32:59.768Z,22.68
2023-05-25T16:35:28.559Z,22.52
2023-05-25T16:37:57.336Z,22.40
2023-05-25T16:40:26.944Z,22.43
2023-05-25T16:42:57.361Z,22.16
2023-05-25T16:45:26.575Z,22.07
2023-05-25T16:47:56.746Z,22.00
2023-05-25T16:50:26.520Z,21.93
2023-05-25T16:52:57.097Z,21.96
2023-05-25T16:55:26.211Z,21.84
2023-05-25T16:57:56.519Z,21.82
2023-05-25T17:00:25.889Z,21.75
2023-05-25T17:02:54.979Z,21.71
2023-05-25T17:05:24.841Z,21.69
2023-05-25T17:07:53.696Z,21.54
2023-05-25T17:10:22.676Z,21.40
2023-05-25T17:12:52.072Z,21.34
2023-05-25T17:15:22.522Z,21.22
2023-05-25T17:17:51.354Z,21.02
2023-05-25T17:31:58.222Z,20.57
2023-05-25T17:34:26.965Z,20.65
2023-05-25T17:36:55.683Z,20.58
2023-05-25T17:39:24.399Z,20.52
2023-05-25T17:41:53.108Z,20.37
2023-05-25T17:44:21.857Z,20.12
2023-05-25T17:46:50.540Z,20.02
2023-05-25T17:49:20.653Z,19.89
2023-05-25T17:51:49.411Z,19.78
2023-05-25T17:54:19.949Z,19.80
2023-05-25T17:56:48.702Z,19.55
2023-05-25T17:59:17.354Z,19.42
2023-05-25T18:01:46.168Z,19.36
2023-05-25T18:04:15.112Z,19.22
2023-05-25T18:06:45.359Z,19.19
2023-05-25T18:09:14.115Z,18.97
2023-05-25T18:11:42.798Z,18.83
2023-05-25T18:14:11.637Z,18.79
2023-05-25T18:16:41.725Z,18.70
2023-05-25T18:19:10.701Z,18.56
2023-05-25T18:21:40.358Z,18.37
2023-05-25T18:24:10.865Z,18.32
2023-05-25T18:26:41.707Z,18.18
2023-05-25T18:29:10.623Z,18.05
2023-05-25T18:31:45.639Z,18.02
2023-05-25T18:34:15.106Z,17.92
2023-05-25T18:36:43.822Z,17.86
2023-05-25T18:39:13.922Z,17.76
2023-05-25T18:41:42.725Z,17.66
2023-05-25T18:44:11.451Z,17.57
2023-05-25T18:46:43.395Z,17.48
2023-05-25T18:49:12.510Z,17.41
2023-05-25T18:51:41.233Z,17.39
2023-05-25T18:54:10.226Z,17.29
2023-05-25T18:56:40.323Z,17.27
2023-05-25T18:59:09.259Z,17.25
2023-05-25T19:01:41.344Z,17.06
2023-05-25T19:04:16.120Z,16.92
2023-05-25T19:06:46.917Z,16.76
2023-05-25T19:09:15.964Z,16.73
2023-05-25T19:11:46.650Z,16.75
2023-05-25T19:14:15.694Z,16.62
2023-05-25T19:16:46.044Z,16.51
2023-05-25T19:19:16.956Z,16.42
2023-05-25T19:21:46.692Z,16.30
2023-05-25T19:24:15.504Z,16.23
2023-05-25T19:26:46.378Z,16.21
2023-05-25T19:29:16.578Z,16.10
2023-05-25T19:31:47.710Z,16.12
2023-05-25T19:34:16.746Z,16.02
2023-05-25T19:36:45.646Z,15.92
2023-05-25T19:39:15.301Z,15.80
2023-05-25T19:41:45.693Z,15.72
2023-05-25T19:44:14.669Z,15.67
2023-05-25T19:46:43.417Z,15.54
2023-05-25T19:49:12.241Z,15.49
2023-05-25T19:51:41.060Z,15.44
2023-05-25T19:54:10.442Z,15.38
2023-05-25T19:56:39.262Z,15.18
2023-05-25T19:59:09.411Z,15.25
2023-05-25T20:01:38.453Z,15.32
2023-05-25T20:04:07.656Z,15.44
2023-05-25T20:06:37.605Z,15.35
2023-05-25T20:09:07.296Z,14.99
2023-05-25T20:11:36.140Z,14.85
2023-05-25T20:14:04.879Z,14.91
2023-05-25T20:16:35.273Z,14.93
2023-05-25T20:19:07.814Z,14.81
2023-05-25T20:21:36.637Z,14.73
2023-05-25T20:24:05.597Z,14.59
2023-05-25T20:26:34.389Z,14.67
2023-05-25T20:29:03.114Z,14.55
2023-05-25T20:31:31.888Z,14.60
2023-05-25T20:34:02.134Z,14.48
2023-05-25T20:36:32.216Z,14.31
2023-05-25T20:39:02.956Z,14.42
2023-05-25T20:41:31.849Z,14.34
2023-05-25T20:44:00.660Z,14.17
2023-05-25T20:46:29.478Z,14.03
2023-05-25T20:48:58.551Z,14.09
2023-05-25T20:51:28.690Z,14.01
2023-05-25T20:53:57.515Z,13.80
2023-05-25T20:56:27.828Z,13.79
2023-05-25T20:58:57.537Z,13.92
2023-05-25T21:01:26.324Z,13.98
2023-05-25T21:03:55.179Z,13.96
2023-05-25T21:06:24.051Z,13.85
2023-05-25T21:08:54.443Z,14.07
2023-05-25T21:11:23.439Z,14.09
2023-05-25T21:13:52.153Z,14.00
2023-05-25T21:16:20.929Z,13.80
2023-05-25T21:18:49.734Z,13.53
2023-05-25T21:21:18.578Z,13.46
2023-05-25T21:23:47.263Z,13.47
2023-05-25T21:26:17.379Z,13.63
2023-05-25T21:28:46.074Z,13.61
2023-05-25T21:31:14.896Z,13.49
2023-05-25T21:33:45.877Z,13.60
2023-05-25T21:36:14.633Z,13.56
2023-05-25T21:38:43.371Z,13.66
2023-05-25T21:41:12.290Z,13.43
2023-05-25T21:43:42.522Z,13.43
2023-05-25T21:46:11.269Z,13.40
2023-05-25T21:48:39.988Z,13.43
2023-05-25T21:51:08.680Z,13.17
2023-05-25T21:53:37.509Z,13.06
2023-05-25T21:56:06.236Z,13.13
2023-05-25T21:58:35.019Z,13.04
2023-05-25T22:01:07.581Z,13.05
2023-05-25T22:03:36.528Z,13.15
2023-05-25T22:06:05.607Z,13.19
2023-05-25T22:08:34.413Z,13.12
2023-05-25T22:11:03.192Z,13.14
2023-05-25T22:13:31.878Z,13.05
2023-05-25T22:16:00.694Z,13.07
2023-05-25T22:18:30.839Z,12.97
2023-05-25T22:20:59.797Z,12.89
2023-05-25T22:23:28.536Z,12.69
2023-05-25T22:25:57.270Z,12.82
2023-05-25T22:28:25.967Z,12.91
2023-05-25T22:30:54.783Z,12.74
2023-05-25T22:33:23.582Z,12.85
2023-05-25T22:35:54.216Z,12.93
2023-05-25T22:38:22.967Z,13.04
2023-05-25T22:40:51.718Z,13.11
2023-05-25T22:43:20.448Z,13.11
2023-05-25T22:45:49.426Z,12.99
2023-05-25T22:48:18.165Z,12.75
2023-05-25T22:50:46.943Z,12.73
2023-05-25T22:53:17.123Z,12.69
2023-05-25T22:55:47.467Z,12.52
2023-05-25T22:58:16.507Z,12.60
2023-05-25T23:00:45.222Z,12.52
2023-05-25T23:03:14.067Z,12.59
2023-05-25T23:05:42.993Z,12.42
2023-05-25T23:08:11.652Z,12.34
2023-05-25T23:10:41.788Z,12.24
2023-05-25T23:13:10.735Z,12.17
2023-05-25T23:15:40.029Z,12.10
2023-05-25T23:18:08.918Z,12.03
2023-05-25T23:20:37.883Z,12.03
2023-05-25T23:23:06.816Z,12.01
2023-05-25T23:25:35.777Z,12.12
2023-05-25T23:28:05.892Z,12.05
2023-05-25T23:30:34.587Z,11.86
2023-05-25T23:33:03.307Z,11.81
2023-05-25T23:35:32.116Z,11.69
2023-05-25T23:38:01.877Z,11.73
2023-05-25T23:40:30.919Z,11.94
2023-05-25T23:42:59.736Z,11.75
2023-05-25T23:45:30.030Z,11.58
2023-05-25T23:47:58.800Z,11.36
2023-05-25T23:50:27.758Z,11.25
2023-05-25T23:52:56.463Z,11.41
2023-05-25T23:55:25.426Z,11.39
2023-05-25T23:57:54.252Z,11.42
